Terminal Aerodrome Forecast
Issued by NWS

Home | Current Version | Previous Version | Graphics & Text | Print | Product List | Glossary On
Versions: 1 2 3 4 5 6 7 8 9 10 11 12
627
FTUS43 KTOP 152320
TAFMHK
TAF
KMHK 152320Z 1600/1624 29004KT P6SM SKC
     FM161800 20010KT P6SM SKC=

USA.gov is the U.S. government's official web portal to all federal, state and local government web resources and services.